createdAt,value
2022-11-21T00:00:45.173Z,1000.87
2022-11-21T00:01:45.091Z,1000.84
2022-11-21T00:02:44.976Z,1000.98
2022-11-21T00:03:44.968Z,1000.92
2022-11-21T00:04:44.953Z,1000.98
2022-11-21T00:05:44.953Z,1000.92
2022-11-21T00:06:44.931Z,1000.94
2022-11-21T00:07:44.945Z,1000.89
2022-11-21T00:08:44.913Z,1000.94
2022-11-21T00:09:44.900Z,1000.87
2022-11-21T00:10:44.886Z,1000.96
2022-11-21T00:11:44.919Z,1000.93
2022-11-21T00:12:44.866Z,1000.94
2022-11-21T00:13:44.856Z,1000.99
2022-11-21T00:14:44.837Z,1000.95
2022-11-21T00:15:44.826Z,1001.01
2022-11-21T00:16:44.816Z,1000.93
2022-11-21T00:17:44.836Z,1000.97
2022-11-21T00:18:44.799Z,1000.97
2022-11-21T00:19:44.827Z,1001.06
2022-11-21T00:20:44.808Z,1001.08
2022-11-21T00:21:44.783Z,1001.05
2022-11-21T00:22:44.768Z,1001.09
2022-11-21T00:23:44.754Z,1001.10
2022-11-21T00:24:44.740Z,1001.14
2022-11-21T00:25:44.739Z,1001.11
2022-11-21T00:26:44.750Z,1001.11
2022-11-21T00:27:44.705Z,1001.10
2022-11-21T00:28:44.703Z,1001.14
2022-11-21T00:29:44.686Z,1001.13
2022-11-21T00:30:44.679Z,1001.08
2022-11-21T00:31:44.663Z,1001.08
2022-11-21T00:32:44.687Z,1001.12
2022-11-21T00:33:44.658Z,1001.12
2022-11-21T00:34:44.657Z,1001.13
2022-11-21T00:35:44.980Z,1001.11
2022-11-21T00:36:44.601Z,1001.05
2022-11-21T00:37:44.590Z,1001.01
2022-11-21T00:38:44.570Z,1001.09
2022-11-21T00:39:44.590Z,1001.09
2022-11-21T00:40:44.566Z,1001.09
2022-11-21T00:41:44.605Z,1001.07
2022-11-21T00:42:44.532Z,1001.06
2022-11-21T00:43:44.526Z,1001.08
2022-11-21T00:44:44.532Z,1001.07
2022-11-21T00:45:44.529Z,1001.07
2022-11-21T00:46:44.493Z,1001.06
2022-11-21T00:47:44.538Z,1001.07
2022-11-21T00:48:44.499Z,1001.09
2022-11-21T00:49:44.471Z,1001.08
2022-11-21T00:50:44.466Z,1001.11
2022-11-21T00:51:44.467Z,1001.08
2022-11-21T00:52:44.425Z,1001.06
2022-11-21T00:53:44.427Z,1001.09
2022-11-21T00:54:44.400Z,1001.03
2022-11-21T00:55:44.401Z,1001.09
2022-11-21T00:56:44.408Z,1001.06
2022-11-21T00:57:44.375Z,1001.06
2022-11-21T00:58:44.384Z,1001.09
2022-11-21T00:59:44.385Z,1001.15
2022-11-21T01:00:44.367Z,1001.10
2022-11-21T01:01:44.325Z,1001.13
2022-11-21T01:02:44.318Z,1001.06
2022-11-21T01:03:44.314Z,1001.12
2022-11-21T01:04:44.316Z,1001.13
2022-11-21T01:05:44.285Z,1001.14
2022-11-21T01:06:44.277Z,1001.22
2022-11-21T01:07:44.338Z,1001.22
2022-11-21T01:08:44.249Z,1001.18
2022-11-21T01:09:44.238Z,1001.24
2022-11-21T01:10:44.243Z,1001.24
2022-11-21T01:11:44.209Z,1001.21
2022-11-21T01:12:44.211Z,1001.20
2022-11-21T01:13:44.228Z,1001.23
2022-11-21T01:15:05.210Z,1001.17
2022-11-21T01:15:44.173Z,1001.12
2022-11-21T01:16:44.167Z,1001.18
2022-11-21T01:17:44.143Z,1001.13
2022-11-21T01:18:44.148Z,1001.14
2022-11-21T01:19:44.606Z,1001.13
2022-11-21T01:20:44.128Z,1001.23
2022-11-21T01:21:44.104Z,1001.18
2022-11-21T01:22:44.104Z,1001.19
2022-11-21T01:23:44.079Z,1001.17
2022-11-21T01:24:44.080Z,1001.13
2022-11-21T01:25:45.124Z,1001.15
2022-11-21T01:26:44.071Z,1001.21
2022-11-21T01:27:44.042Z,1001.20
2022-11-21T01:28:44.036Z,1001.21
2022-11-21T01:29:44.019Z,1001.18
2022-11-21T01:30:44.057Z,1001.20
2022-11-21T01:31:44.020Z,1001.26
2022-11-21T01:32:44.007Z,1001.24
2022-11-21T01:33:44.962Z,1001.29
2022-11-21T01:34:43.970Z,1001.26
2022-11-21T01:35:44.007Z,1001.29
2022-11-21T01:36:43.956Z,1001.27
2022-11-21T01:37:43.963Z,1001.23
2022-11-21T01:38:43.921Z,1001.27
2022-11-21T01:39:43.907Z,1001.27
2022-11-21T01:40:43.903Z,1001.32
2022-11-21T01:41:43.922Z,1001.26
2022-11-21T01:42:43.883Z,1001.27
2022-11-21T01:43:43.873Z,1001.25
2022-11-21T01:44:43.862Z,1001.26
2022-11-21T01:45:43.841Z,1001.28
2022-11-21T01:46:43.863Z,1001.27
2022-11-21T01:47:43.822Z,1001.24
2022-11-21T01:48:43.842Z,1001.24
2022-11-21T01:49:43.803Z,1001.25
2022-11-21T01:50:43.820Z,1001.25
2022-11-21T01:51:43.819Z,1001.26
2022-11-21T01:52:43.768Z,1001.27
2022-11-21T01:53:43.783Z,1001.27
2022-11-21T01:54:43.766Z,1001.24
2022-11-21T01:55:43.760Z,1001.30
2022-11-21T01:56:43.756Z,1001.22
2022-11-21T01:57:43.724Z,1001.28
2022-11-21T01:58:43.714Z,1001.24
2022-11-21T01:59:43.715Z,1001.25
2022-11-21T02:00:43.722Z,1001.24
2022-11-21T02:01:43.708Z,1001.28
2022-11-21T02:02:43.677Z,1001.23
2022-11-21T02:03:43.647Z,1001.22
2022-11-21T02:04:43.693Z,1001.24
2022-11-21T02:05:43.635Z,1001.27
2022-11-21T02:06:43.656Z,1001.24
2022-11-21T02:07:43.661Z,1001.28
2022-11-21T02:08:43.606Z,1001.27
2022-11-21T02:09:43.586Z,1001.23
2022-11-21T02:10:43.587Z,1001.19
2022-11-21T02:11:43.607Z,1001.24
2022-11-21T02:12:43.577Z,1001.23
2022-11-21T02:13:43.599Z,1001.17
2022-11-21T02:14:43.552Z,1001.21
2022-11-21T02:15:43.518Z,1001.26
2022-11-21T02:16:43.527Z,1001.20
2022-11-21T02:17:43.498Z,1001.18
2022-11-21T02:18:43.549Z,1001.23
2022-11-21T02:19:43.558Z,1001.23
2022-11-21T02:20:43.469Z,1001.25
2022-11-21T02:21:43.459Z,1001.24
2022-11-21T02:22:43.462Z,1001.30
2022-11-21T02:23:43.445Z,1001.27
2022-11-21T02:24:43.436Z,1001.29
2022-11-21T02:25:43.484Z,1001.27
2022-11-21T02:26:43.404Z,1001.22
2022-11-21T02:27:43.396Z,1001.31
2022-11-21T02:28:43.410Z,1001.26
2022-11-21T02:29:43.384Z,1001.26
2022-11-21T02:30:43.380Z,1001.26
2022-11-21T02:31:43.371Z,1001.34
2022-11-21T02:32:43.342Z,1001.33
2022-11-21T02:33:43.329Z,1001.25
2022-11-21T02:34:43.334Z,1001.33
2022-11-21T02:35:43.302Z,1001.32
2022-11-21T02:36:43.324Z,1001.36
2022-11-21T02:37:43.281Z,1001.29
2022-11-21T02:38:43.281Z,1001.36
2022-11-21T02:39:43.262Z,1001.31
2022-11-21T02:40:43.264Z,1001.33
2022-11-21T02:41:43.268Z,1001.33
2022-11-21T02:42:43.228Z,1001.34
2022-11-21T02:43:43.233Z,1001.33
2022-11-21T02:44:43.235Z,1001.35
2022-11-21T02:45:43.431Z,1001.38
2022-11-21T02:46:43.193Z,1001.39
2022-11-21T02:47:43.174Z,1001.33
2022-11-21T02:48:44.143Z,1001.39
2022-11-21T02:49:43.157Z,1001.37
2022-11-21T02:50:43.143Z,1001.32
2022-11-21T02:51:43.156Z,1001.36
2022-11-21T02:52:43.124Z,1001.34
2022-11-21T02:53:43.114Z,1001.32
2022-11-21T02:54:43.115Z,1001.29
2022-11-21T02:55:43.118Z,1001.33
2022-11-21T02:56:43.098Z,1001.29
2022-11-21T02:57:43.093Z,1001.33
2022-11-21T02:58:43.079Z,1001.30
2022-11-21T02:59:43.055Z,1001.33
2022-11-21T03:00:43.115Z,1001.30
2022-11-21T03:01:43.059Z,1001.31
2022-11-21T03:02:43.025Z,1001.31
2022-11-21T03:03:43.007Z,1001.33
2022-11-21T03:04:43.046Z,1001.30
2022-11-21T03:05:42.981Z,1001.29
2022-11-21T03:06:42.998Z,1001.33
2022-11-21T03:07:43.053Z,1001.33
2022-11-21T03:08:43.909Z,1001.36
2022-11-21T03:09:42.963Z,1001.40
2022-11-21T03:10:42.998Z,1001.39
2022-11-21T03:11:42.923Z,1001.40
2022-11-21T03:12:42.907Z,1001.40
2022-11-21T03:13:42.902Z,1001.42
2022-11-21T03:14:42.909Z,1001.44
2022-11-21T03:15:42.867Z,1001.36
2022-11-21T03:16:42.889Z,1001.35
2022-11-21T03:17:42.850Z,1001.33
2022-11-21T03:18:43.791Z,1001.33
2022-11-21T03:19:42.819Z,1001.35
2022-11-21T03:20:42.891Z,1001.32
2022-11-21T03:21:42.880Z,1001.30
2022-11-21T03:22:42.811Z,1001.25
2022-11-21T03:23:42.792Z,1001.35
2022-11-21T03:24:42.784Z,1001.33
2022-11-21T03:25:42.763Z,1001.38
2022-11-21T03:26:42.790Z,1001.39
2022-11-21T03:27:42.758Z,1001.34
2022-11-21T03:28:42.731Z,1001.41
2022-11-21T03:29:42.725Z,1001.43
2022-11-21T03:30:42.740Z,1001.38
2022-11-21T03:31:42.737Z,1001.37
2022-11-21T03:32:42.697Z,1001.41
2022-11-21T03:33:42.684Z,1001.40
2022-11-21T03:34:42.674Z,1001.40
2022-11-21T03:35:42.653Z,1001.38
2022-11-21T03:36:42.661Z,1001.41
2022-11-21T03:37:42.663Z,1001.45
2022-11-21T03:38:42.630Z,1001.48
2022-11-21T03:39:42.613Z,1001.42
2022-11-21T03:40:42.608Z,1001.46
2022-11-21T03:41:42.613Z,1001.42
2022-11-21T03:42:42.584Z,1001.44
2022-11-21T03:43:42.567Z,1001.44
2022-11-21T03:44:42.623Z,1001.43
2022-11-21T03:45:42.550Z,1001.49
2022-11-21T03:46:42.544Z,1001.52
2022-11-21T03:47:42.520Z,1001.50
2022-11-21T03:48:42.524Z,1001.40
2022-11-21T03:49:42.503Z,1001.33
2022-11-21T03:50:42.515Z,1001.37
2022-11-21T03:51:42.489Z,1001.36
2022-11-21T03:52:42.477Z,1001.32
2022-11-21T03:53:42.455Z,1001.31
2022-11-21T03:54:42.447Z,1001.31
2022-11-21T03:55:42.468Z,1001.36
2022-11-21T03:56:42.431Z,1001.38
2022-11-21T03:57:42.445Z,1001.39
2022-11-21T03:58:42.411Z,1001.42
2022-11-21T03:59:42.439Z,1001.47
2022-11-21T04:00:42.394Z,1001.40
2022-11-21T04:01:42.407Z,1001.43
2022-11-21T04:02:42.359Z,1001.49
2022-11-21T04:03:42.356Z,1001.52
2022-11-21T04:04:42.362Z,1001.45
2022-11-21T04:05:42.348Z,1001.53
2022-11-21T04:06:42.329Z,1001.52
2022-11-21T04:07:42.400Z,1001.51
2022-11-21T04:08:42.308Z,1001.47
2022-11-21T04:09:42.286Z,1001.51
2022-11-21T04:10:42.273Z,1001.47
2022-11-21T04:11:42.261Z,1001.49
2022-11-21T04:12:42.292Z,1001.48
2022-11-21T04:13:42.252Z,1001.49
2022-11-21T04:14:42.270Z,1001.54
2022-11-21T04:15:42.221Z,1001.54
2022-11-21T04:16:42.211Z,1001.53
2022-11-21T04:17:42.213Z,1001.54
2022-11-21T04:18:42.220Z,1001.51
2022-11-21T04:19:42.182Z,1001.52
2022-11-21T04:20:42.171Z,1001.44
2022-11-21T04:21:42.169Z,1001.47
2022-11-21T04:22:42.161Z,1001.47
2022-11-21T04:23:42.130Z,1001.46
2022-11-21T04:24:42.125Z,1001.43
2022-11-21T04:25:42.130Z,1001.45
2022-11-21T04:26:42.101Z,1001.45
2022-11-21T04:27:42.082Z,1001.46
2022-11-21T04:28:42.098Z,1001.42
2022-11-21T04:29:42.082Z,1001.39
2022-11-21T04:30:42.067Z,1001.40
2022-11-21T04:31:42.042Z,1001.39
2022-11-21T04:32:42.066Z,1001.45
2022-11-21T04:33:42.022Z,1001.48
2022-11-21T04:34:42.018Z,1001.48
2022-11-21T04:35:42.015Z,1001.42
2022-11-21T04:36:42.023Z,1001.46
2022-11-21T04:37:41.984Z,1001.48
2022-11-21T04:38:41.989Z,1001.48
2022-11-21T04:39:41.959Z,1001.46
2022-11-21T04:40:41.976Z,1001.47
2022-11-21T04:41:41.985Z,1001.40
2022-11-21T04:42:41.925Z,1001.36
2022-11-21T04:43:41.923Z,1001.37
2022-11-21T04:44:41.907Z,1001.36
2022-11-21T04:45:41.891Z,1001.44
2022-11-21T04:46:41.947Z,1001.43
2022-11-21T04:47:41.893Z,1001.37
2022-11-21T04:48:41.876Z,1001.36
2022-11-21T04:49:41.846Z,1001.34
2022-11-21T04:50:41.837Z,1001.31
2022-11-21T04:51:41.837Z,1001.29
2022-11-21T04:52:41.902Z,1001.25
2022-11-21T04:53:43.357Z,1001.27
2022-11-21T04:54:41.801Z,1001.24
2022-11-21T04:55:41.791Z,1001.26
2022-11-21T04:56:41.801Z,1001.21
2022-11-21T04:57:41.756Z,1001.24
2022-11-21T04:58:41.809Z,1001.28
2022-11-21T04:59:41.743Z,1001.29
2022-11-21T05:00:41.747Z,1001.30
2022-11-21T05:01:41.813Z,1001.22
2022-11-21T05:02:41.800Z,1001.27
2022-11-21T05:03:41.883Z,1001.23
2022-11-21T05:04:41.718Z,1001.25
2022-11-21T05:05:42.636Z,1001.24
2022-11-21T05:06:41.892Z,1001.16
2022-11-21T05:07:42.707Z,1001.23
2022-11-21T05:08:41.822Z,1001.14
2022-11-21T05:09:41.625Z,1001.18
2022-11-21T05:10:41.620Z,1001.16
2022-11-21T05:11:41.710Z,1001.26
2022-11-21T05:12:41.602Z,1001.27
2022-11-21T05:13:42.531Z,1001.23
2022-11-21T05:14:41.611Z,1001.20
2022-11-21T05:15:41.561Z,1001.22
2022-11-21T05:16:41.565Z,1001.18
2022-11-21T05:17:41.561Z,1001.19
2022-11-21T05:18:41.556Z,1001.18
2022-11-21T05:19:41.521Z,1001.18
2022-11-21T05:20:41.840Z,1001.24
2022-11-21T05:21:41.507Z,1001.17
2022-11-21T05:22:41.493Z,1001.21
2022-11-21T05:23:42.335Z,1001.21
2022-11-21T05:24:41.478Z,1001.15
2022-11-21T05:25:42.921Z,1001.17
2022-11-21T05:26:41.450Z,1001.16
2022-11-21T05:27:41.440Z,1001.17
2022-11-21T05:28:41.586Z,1001.12
2022-11-21T05:29:41.445Z,1001.13
2022-11-21T05:30:41.394Z,1001.18
2022-11-21T05:31:41.400Z,1001.12
2022-11-21T05:32:41.656Z,1001.06
2022-11-21T05:33:41.364Z,1001.09
2022-11-21T05:34:41.356Z,1001.04
2022-11-21T05:35:43.348Z,1001.05
2022-11-21T05:36:41.376Z,1001.04
2022-11-21T05:37:41.385Z,1001.06
2022-11-21T05:38:41.316Z,1001.13
2022-11-21T05:39:41.345Z,1001.16
2022-11-21T05:40:41.306Z,1001.15
2022-11-21T05:41:41.305Z,1001.14
2022-11-21T05:42:41.269Z,1001.16
2022-11-21T05:43:41.267Z,1001.16
2022-11-21T05:44:41.466Z,1001.16
2022-11-21T05:45:42.688Z,1001.17
2022-11-21T05:46:41.256Z,1001.20
2022-11-21T05:47:41.207Z,1001.19
2022-11-21T05:48:41.932Z,1001.18
2022-11-21T05:49:41.201Z,1001.19
2022-11-21T05:50:41.194Z,1001.18
2022-11-21T05:51:41.247Z,1001.22
2022-11-21T05:52:41.182Z,1001.18
2022-11-21T05:53:41.157Z,1001.18
2022-11-21T05:54:45.982Z,1001.21
2022-11-21T05:55:41.132Z,1001.14
2022-11-21T05:56:41.145Z,1001.12
2022-11-21T05:57:41.163Z,1001.13
2022-11-21T05:58:41.111Z,1001.08
2022-11-21T05:59:41.084Z,1001.14
2022-11-21T06:00:41.069Z,1001.16
2022-11-21T06:01:41.061Z,1001.14
2022-11-21T06:02:41.173Z,1001.13
2022-11-21T06:03:41.085Z,1001.18
2022-11-21T06:04:41.020Z,1001.13
2022-11-21T06:05:41.080Z,1001.13
2022-11-21T06:06:41.035Z,1001.07
2022-11-21T06:07:41.026Z,1001.10
2022-11-21T06:08:40.981Z,1001.06
2022-11-21T06:09:40.996Z,1001.04
2022-11-21T06:10:40.965Z,1000.98
2022-11-21T06:11:40.965Z,1001.02
2022-11-21T06:12:40.964Z,1001.02
2022-11-21T06:13:41.060Z,1000.95
2022-11-21T06:14:40.925Z,1000.93
2022-11-21T06:15:40.904Z,1000.96
2022-11-21T06:16:40.907Z,1000.97
2022-11-21T06:17:40.917Z,1000.94
2022-11-21T06:18:40.887Z,1000.91
2022-11-21T06:19:40.873Z,1000.92
2022-11-21T06:20:40.842Z,1000.92
2022-11-21T06:21:40.876Z,1000.93
2022-11-21T06:22:40.834Z,1000.91
2022-11-21T06:23:40.829Z,1000.90
2022-11-21T06:24:40.806Z,1000.96
2022-11-21T06:25:40.827Z,1000.95
2022-11-21T06:26:40.804Z,1000.92
2022-11-21T06:27:40.785Z,1000.95
2022-11-21T06:28:40.759Z,1000.93
2022-11-21T06:29:40.751Z,1000.91
2022-11-21T06:30:40.735Z,1000.88
2022-11-21T06:31:40.746Z,1000.88
2022-11-21T06:32:40.808Z,1000.90
2022-11-21T06:33:40.708Z,1000.86
2022-11-21T06:34:40.710Z,1000.84
2022-11-21T06:35:41.637Z,1000.86
2022-11-21T06:36:40.682Z,1000.88
2022-11-21T06:37:40.698Z,1000.91
2022-11-21T06:38:40.663Z,1000.91
2022-11-21T06:39:40.669Z,1000.87
2022-11-21T06:40:40.642Z,1000.89
2022-11-21T06:41:40.639Z,1000.89
2022-11-21T06:42:40.608Z,1000.94
2022-11-21T06:43:40.610Z,1000.89
2022-11-21T06:44:40.641Z,1000.90
2022-11-21T06:45:40.598Z,1000.92
2022-11-21T06:46:40.578Z,1000.97
2022-11-21T06:47:40.570Z,1000.94
2022-11-21T06:48:40.550Z,1000.96
2022-11-21T06:49:40.553Z,1000.91
2022-11-21T06:50:40.558Z,1000.93
2022-11-21T06:51:40.518Z,1000.91
2022-11-21T06:52:40.499Z,1000.97
2022-11-21T06:53:40.531Z,1000.89
2022-11-21T06:54:40.509Z,1000.93
2022-11-21T06:55:40.522Z,1000.90
2022-11-21T06:56:40.458Z,1000.90
2022-11-21T06:57:40.451Z,1000.89
2022-11-21T06:58:40.431Z,1000.91
2022-11-21T06:59:40.440Z,1000.93
2022-11-21T07:00:40.411Z,1000.86
2022-11-21T07:01:40.475Z,1000.94
2022-11-21T07:02:40.417Z,1000.95
2022-11-21T07:03:40.392Z,1000.94
2022-11-21T07:04:40.379Z,1000.90
2022-11-21T07:05:41.331Z,1000.96
2022-11-21T07:06:40.375Z,1000.88
2022-11-21T07:07:40.423Z,1000.82
2022-11-21T07:08:40.330Z,1000.86
2022-11-21T07:09:40.341Z,1000.81
2022-11-21T07:10:45.138Z,1000.83
2022-11-21T07:11:41.299Z,1000.82
2022-11-21T07:12:40.283Z,1000.80
2022-11-21T07:13:40.285Z,1000.77
2022-11-21T07:14:40.281Z,1000.80
2022-11-21T07:15:40.287Z,1000.84
2022-11-21T07:16:40.233Z,1000.87
2022-11-21T07:17:40.244Z,1000.88
2022-11-21T07:18:40.215Z,1000.90
2022-11-21T07:19:41.098Z,1000.91
2022-11-21T07:20:40.257Z,1000.88
2022-11-21T07:21:40.214Z,1000.85
2022-11-21T07:22:40.168Z,1000.81
2022-11-21T07:23:40.199Z,1000.85
2022-11-21T07:24:40.164Z,1000.79
2022-11-21T07:25:40.193Z,1000.80
2022-11-21T07:26:40.126Z,1000.81
2022-11-21T07:27:40.138Z,1000.78
2022-11-21T07:28:40.119Z,1000.76
2022-11-21T07:29:40.116Z,1000.70
2022-11-21T07:30:41.044Z,1000.76
2022-11-21T07:31:40.108Z,1000.72
2022-11-21T07:32:40.061Z,1000.70
2022-11-21T07:33:40.104Z,1000.67
2022-11-21T07:34:41.009Z,1000.65
2022-11-21T07:35:40.037Z,1000.70
2022-11-21T07:36:40.997Z,1000.70
2022-11-21T07:37:40.018Z,1000.67
2022-11-21T07:38:40.035Z,1000.69
2022-11-21T07:39:40.055Z,1000.68
2022-11-21T07:40:39.978Z,1000.68
2022-11-21T07:41:39.984Z,1000.67
2022-11-21T07:42:39.958Z,1000.65
2022-11-21T07:43:39.968Z,1000.71
2022-11-21T07:44:39.978Z,1000.61
2022-11-21T07:45:39.928Z,1000.61
2022-11-21T07:46:39.919Z,1000.60
2022-11-21T07:47:39.929Z,1000.61
2022-11-21T07:48:39.897Z,1000.52
2022-11-21T07:49:39.882Z,1000.58
2022-11-21T07:50:39.911Z,1000.50
2022-11-21T07:51:39.860Z,1000.50
2022-11-21T07:52:39.843Z,1000.56
2022-11-21T07:53:39.841Z,1000.54
2022-11-21T07:54:39.821Z,1000.52
2022-11-21T07:55:41.064Z,1000.57
2022-11-21T07:56:39.833Z,1000.55
2022-11-21T07:57:39.807Z,1000.60
2022-11-21T07:58:39.808Z,1000.62
2022-11-21T07:59:39.809Z,1000.73
2022-11-21T08:00:39.771Z,1000.69
2022-11-21T08:01:45.023Z,1000.69
2022-11-21T08:02:40.750Z,1000.74
2022-11-21T08:03:39.739Z,1000.69
2022-11-21T08:04:39.711Z,1000.63
2022-11-21T08:05:39.753Z,1000.64
2022-11-21T08:06:39.703Z,1000.62
2022-11-21T08:07:39.751Z,1000.60
2022-11-21T08:08:39.747Z,1000.55
2022-11-21T08:09:39.908Z,1000.49
2022-11-21T08:10:39.687Z,1000.44
2022-11-21T08:11:39.668Z,1000.37
2022-11-21T08:12:39.625Z,1000.37
2022-11-21T08:13:39.654Z,1000.30
2022-11-21T08:14:39.615Z,1000.34
2022-11-21T08:15:39.599Z,1000.32
2022-11-21T08:16:39.618Z,1000.32
2022-11-21T08:17:39.595Z,1000.28
2022-11-21T08:18:39.585Z,1000.30
2022-11-21T08:19:39.559Z,1000.30
2022-11-21T08:20:39.542Z,1000.33
2022-11-21T08:21:39.544Z,1000.30
2022-11-21T08:22:39.560Z,1000.33
2022-11-21T08:23:39.507Z,1000.37
2022-11-21T08:24:39.497Z,1000.28
2022-11-21T08:25:39.503Z,1000.30
2022-11-21T08:26:39.480Z,1000.29
2022-11-21T08:27:39.458Z,1000.29
2022-11-21T08:28:39.471Z,1000.29
2022-11-21T08:29:39.447Z,1000.33
2022-11-21T08:30:39.423Z,1000.33
2022-11-21T08:31:39.421Z,1000.35
2022-11-21T08:32:39.692Z,1000.37
2022-11-21T08:33:39.413Z,1000.40
2022-11-21T08:34:39.408Z,1000.45
2022-11-21T08:35:39.391Z,1000.44
2022-11-21T08:36:39.371Z,1000.41
2022-11-21T08:37:39.349Z,1000.44
2022-11-21T08:38:39.350Z,1000.44
2022-11-21T08:39:39.575Z,1000.36
2022-11-21T08:40:39.338Z,1000.41
2022-11-21T08:41:39.439Z,1000.38
2022-11-21T08:42:39.296Z,1000.41
2022-11-21T08:43:40.242Z,1000.41
2022-11-21T08:44:39.274Z,1000.42
2022-11-21T08:45:39.297Z,1000.40
2022-11-21T08:46:39.257Z,1000.44
2022-11-21T08:47:39.246Z,1000.35
2022-11-21T08:48:39.254Z,1000.35
2022-11-21T08:49:39.211Z,1000.38
2022-11-21T08:50:39.209Z,1000.37
2022-11-21T08:51:39.192Z,1000.33
2022-11-21T08:52:39.205Z,1000.27
2022-11-21T08:53:39.174Z,1000.26
2022-11-21T08:54:39.153Z,1000.36
2022-11-21T08:55:39.560Z,1000.33
2022-11-21T08:56:39.136Z,1000.39
2022-11-21T08:57:39.518Z,1000.31
2022-11-21T08:58:39.115Z,1000.33
2022-11-21T08:59:39.407Z,1000.31
2022-11-21T09:00:39.653Z,1000.23
2022-11-21T09:01:39.155Z,1000.27
2022-11-21T09:02:39.909Z,1000.29
2022-11-21T09:03:39.067Z,1000.29
2022-11-21T09:04:39.058Z,1000.28
2022-11-21T09:05:39.040Z,1000.30
2022-11-21T09:06:39.824Z,1000.34
2022-11-21T09:07:39.365Z,1000.33
2022-11-21T09:08:39.001Z,1000.28
2022-11-21T09:09:40.946Z,1000.23
2022-11-21T09:10:39.176Z,1000.31
2022-11-21T09:11:40.412Z,1000.26
2022-11-21T09:12:40.413Z,1000.28
2022-11-21T09:13:39.787Z,1000.24
2022-11-21T09:14:40.378Z,1000.26
2022-11-21T09:15:39.878Z,1000.25
2022-11-21T09:16:40.370Z,1000.25
2022-11-21T09:17:40.350Z,1000.21
2022-11-21T09:18:39.460Z,1000.19
2022-11-21T09:19:39.699Z,1000.23
2022-11-21T09:20:39.208Z,1000.14
2022-11-21T09:21:40.814Z,1000.08
2022-11-21T09:22:39.810Z,1000.09
2022-11-21T09:23:39.090Z,1000.05
2022-11-21T09:24:40.292Z,1000.07
2022-11-21T09:25:38.962Z,1000.09
2022-11-21T09:26:39.268Z,1000.05
2022-11-21T09:27:40.275Z,1000.08
2022-11-21T09:28:38.907Z,1000.10
2022-11-21T09:29:38.841Z,1000.06
2022-11-21T09:30:38.843Z,999.99
2022-11-21T09:31:39.729Z,1000.04
2022-11-21T09:32:39.219Z,1000.00
2022-11-21T09:33:38.973Z,1000.00
2022-11-21T09:34:40.161Z,999.94
2022-11-21T09:35:38.777Z,999.92
2022-11-21T09:36:38.710Z,999.86
2022-11-21T09:37:38.829Z,999.91
2022-11-21T09:38:40.133Z,999.90
2022-11-21T09:39:39.452Z,999.87
2022-11-21T09:40:38.686Z,999.85
2022-11-21T09:41:39.459Z,999.86
2022-11-21T09:42:38.686Z,999.84
2022-11-21T09:43:39.418Z,999.87
2022-11-21T09:44:38.791Z,999.79
2022-11-21T09:45:38.754Z,999.84
2022-11-21T09:46:40.074Z,999.75
2022-11-21T09:47:39.381Z,999.83
2022-11-21T09:48:40.035Z,999.80
2022-11-21T09:49:39.326Z,999.82
2022-11-21T09:50:40.022Z,999.84
2022-11-21T09:51:38.670Z,999.82
2022-11-21T09:52:39.996Z,999.82
2022-11-21T09:53:38.673Z,999.88
2022-11-21T09:54:39.964Z,999.84
2022-11-21T09:55:38.836Z,999.87
2022-11-21T09:56:39.934Z,999.85
2022-11-21T09:57:39.916Z,999.88
2022-11-21T09:58:40.015Z,999.80
2022-11-21T09:59:38.610Z,999.80
2022-11-21T10:00:38.518Z,999.73
2022-11-21T10:01:39.882Z,999.74
2022-11-21T10:02:39.850Z,999.73
2022-11-21T10:03:39.291Z,999.67
2022-11-21T10:04:38.547Z,999.60
2022-11-21T10:05:38.402Z,999.62
2022-11-21T10:06:39.329Z,999.62
2022-11-21T10:07:38.426Z,999.59
2022-11-21T10:08:39.286Z,999.57
2022-11-21T10:09:39.135Z,999.63
2022-11-21T10:10:38.374Z,999.57
2022-11-21T10:11:38.719Z,999.62
2022-11-21T10:12:39.763Z,999.63
2022-11-21T10:13:38.302Z,999.66
2022-11-21T10:14:38.428Z,999.59
2022-11-21T10:15:38.701Z,999.53
2022-11-21T10:16:41.969Z,999.56
2022-11-21T10:17:39.698Z,999.57
2022-11-21T10:18:38.280Z,999.54
2022-11-21T10:19:39.218Z,999.53
2022-11-21T10:20:38.234Z,999.49
2022-11-21T10:21:38.412Z,999.51
2022-11-21T10:22:38.575Z,999.50
2022-11-21T10:23:38.439Z,999.39
2022-11-21T10:24:38.403Z,999.41
2022-11-21T10:25:38.371Z,999.37
2022-11-21T10:26:39.102Z,999.42
2022-11-21T10:27:38.195Z,999.42
2022-11-21T10:28:38.294Z,999.42
2022-11-21T10:29:38.449Z,999.42
2022-11-21T10:30:38.212Z,999.39
2022-11-21T10:31:38.701Z,999.48
2022-11-21T10:32:38.129Z,999.41
2022-11-21T10:33:38.894Z,999.45
2022-11-21T10:34:38.072Z,999.43
2022-11-21T10:35:38.136Z,999.41
2022-11-21T10:36:38.943Z,999.33
2022-11-21T10:37:39.475Z,999.31
2022-11-21T10:38:38.045Z,999.29
2022-11-21T10:39:38.023Z,999.28
2022-11-21T10:40:39.455Z,999.20
2022-11-21T10:41:38.066Z,999.18
2022-11-21T10:42:39.435Z,999.09
2022-11-21T10:43:37.964Z,999.06
2022-11-21T10:44:39.416Z,999.00
2022-11-21T10:45:38.734Z,998.98
2022-11-21T10:46:37.953Z,998.99
2022-11-21T10:47:38.000Z,998.95
2022-11-21T10:48:37.925Z,998.94
2022-11-21T10:49:37.894Z,998.86
2022-11-21T10:50:37.969Z,998.93
2022-11-21T10:51:37.921Z,998.87
2022-11-21T10:52:37.862Z,998.95
2022-11-21T10:53:37.837Z,998.94
2022-11-21T10:54:39.297Z,998.86
2022-11-21T10:55:37.909Z,998.93
2022-11-21T10:56:37.977Z,998.96
2022-11-21T10:57:37.838Z,998.94
2022-11-21T10:58:39.241Z,998.90
2022-11-21T10:59:38.570Z,998.92
2022-11-21T11:00:37.801Z,998.89
2022-11-21T11:01:37.914Z,998.94
2022-11-21T11:02:37.889Z,998.83
2022-11-21T11:03:37.948Z,998.91
2022-11-21T11:04:47.297Z,998.87
2022-11-21T11:05:39.661Z,998.82
2022-11-21T11:06:37.749Z,998.79
2022-11-21T11:07:37.786Z,998.77
2022-11-21T11:08:38.554Z,998.78
2022-11-21T11:09:37.767Z,998.74
2022-11-21T11:10:37.910Z,998.76
2022-11-21T11:11:37.639Z,998.71
2022-11-21T11:12:39.091Z,998.68
2022-11-21T11:13:45.912Z,998.66
2022-11-21T11:14:38.927Z,998.67
2022-11-21T11:15:37.978Z,998.62
2022-11-21T11:16:41.594Z,998.63
2022-11-21T11:17:37.572Z,998.62
2022-11-21T11:18:37.675Z,998.64
2022-11-21T11:19:40.404Z,998.57
2022-11-21T11:20:37.547Z,998.50
2022-11-21T11:21:37.574Z,998.51
2022-11-21T11:22:37.524Z,998.50
2022-11-21T11:23:38.458Z,998.49
2022-11-21T11:24:37.999Z,998.43
2022-11-21T11:25:37.955Z,998.35
2022-11-21T11:26:38.336Z,998.39
2022-11-21T11:27:37.682Z,998.33
2022-11-21T11:28:37.764Z,998.27
2022-11-21T11:29:37.931Z,998.28
2022-11-21T11:30:37.998Z,998.28
2022-11-21T11:31:37.647Z,998.30
2022-11-21T11:32:38.877Z,998.27
2022-11-21T11:33:37.408Z,998.25
2022-11-21T11:34:38.171Z,998.25
2022-11-21T11:35:37.582Z,998.24
2022-11-21T11:36:38.840Z,998.20
2022-11-21T11:37:40.788Z,998.15
2022-11-21T11:38:37.489Z,998.14
2022-11-21T11:39:38.786Z,998.12
2022-11-21T11:40:37.921Z,998.05
2022-11-21T11:41:37.329Z,998.06
2022-11-21T11:42:37.305Z,998.10
2022-11-21T11:43:38.139Z,998.08
2022-11-21T11:44:37.280Z,998.07
2022-11-21T11:45:37.282Z,998.08
2022-11-21T11:46:38.093Z,998.06
2022-11-21T11:47:37.280Z,997.94
2022-11-21T11:48:50.435Z,997.97
2022-11-21T11:49:39.693Z,997.98
2022-11-21T11:50:37.292Z,997.93
2022-11-21T11:51:37.226Z,997.95
2022-11-21T11:52:37.315Z,997.88
2022-11-21T11:53:38.633Z,997.86
2022-11-21T11:54:37.236Z,997.87
2022-11-21T11:55:38.612Z,997.79
2022-11-21T11:56:37.204Z,997.84
2022-11-21T11:57:38.586Z,997.81
2022-11-21T11:58:37.313Z,997.78
2022-11-21T11:59:37.123Z,997.77
2022-11-21T12:00:37.936Z,997.77
2022-11-21T12:01:37.316Z,997.75
2022-11-21T12:02:37.340Z,997.70
2022-11-21T12:03:37.850Z,997.72
2022-11-21T12:04:37.204Z,997.73
2022-11-21T12:05:37.321Z,997.75
2022-11-21T12:07:26.209Z,997.78
2022-11-21T12:08:39.056Z,997.82
2022-11-21T12:08:41.754Z,997.79
2022-11-21T12:09:38.507Z,997.77
2022-11-21T12:10:37.041Z,997.73